Time;durP1;ratioP1;P1;durP2;ratioP2;P2;SDS_P1;SDS_P2;PMS_P1;PMS_P2;Temp;Humidity;BMP_temperature;BMP_pressure;BME280_temperature;BME280_humidity;BME280_pressure;Samples;Min_cycle;Max_cycle;Signal;HPM_P1;HPM_P2
2022/07/01 00:01:21;;;;;;;1.05;0.40;;;;;;;13.96;100.00;98778.50;5003416;28;20545;-61
2022/07/01 00:03:49;;;;;;;1.00;0.50;;;;;;;13.82;100.00;98776.97;5002563;28;20125;-61
2022/07/01 00:06:16;;;;;;;2.38;0.63;;;;;;;13.91;100.00;98783.78;5005169;28;20036;-60
2022/07/01 00:08:42;;;;;;;1.95;0.88;;;;;;;13.97;100.00;98773.88;4998874;28;20030;-61
2022/07/01 00:11:07;;;;;;;1.30;0.57;;;;;;;14.07;100.00;98768.75;4996076;28;20433;-60
2022/07/01 00:13:33;;;;;;;1.83;0.52;;;;;;;14.07;100.00;98787.81;4998445;28;20059;-60
2022/07/01 00:15:58;;;;;;;1.42;0.50;;;;;;;14.03;100.00;98781.97;5001775;28;20405;-61
2022/07/01 00:18:24;;;;;;;0.30;0.30;;;;;;;13.95;100.00;98776.00;5014142;28;20030;-60
2022/07/01 00:20:50;;;;;;;4.90;0.75;;;;;;;14.04;100.00;98796.38;5010400;28;20096;-60
2022/07/01 00:23:17;;;;;;;1.90;0.60;;;;;;;14.02;100.00;98799.34;5006450;28;20031;-61
2022/07/01 00:25:43;;;;;;;1.20;0.60;;;;;;;14.00;100.00;98806.91;5005232;28;20033;-61
2022/07/01 00:28:09;;;;;;;2.80;0.50;;;;;;;13.82;100.00;98813.16;5000662;28;20030;-61
2022/07/01 00:30:34;;;;;;;3.08;0.50;;;;;;;13.85;100.00;98805.59;5003615;28;20037;-61
2022/07/01 00:33:00;;;;;;;6.55;0.50;;;;;;;13.90;100.00;98803.88;5006055;28;20041;-61
2022/07/01 00:35:25;;;;;;;1.55;0.60;;;;;;;13.70;100.00;98795.91;5008066;28;20124;-61
2022/07/01 00:37:50;;;;;;;1.45;0.40;;;;;;;13.59;100.00;98802.06;5000620;28;20083;-61
2022/07/01 00:40:16;;;;;;;1.40;0.60;;;;;;;13.56;100.00;98800.63;5001911;28;20116;-62
2022/07/01 00:42:42;;;;;;;2.38;0.57;;;;;;;13.51;100.00;98794.19;5004179;28;20528;-61
2022/07/01 00:45:09;;;;;;;4.03;0.60;;;;;;;13.54;100.00;98796.47;5002690;28;20026;-61
2022/07/01 00:47:36;;;;;;;3.95;0.73;;;;;;;13.51;100.00;98808.63;4996708;28;20061;-61
2022/07/01 00:50:23;;;;;;;2.05;0.60;;;;;;;13.48;100.00;98811.78;4996276;28;20458;-61
2022/07/01 00:52:49;;;;;;;1.52;0.55;;;;;;;13.56;100.00;98807.97;4999028;28;20470;-61
2022/07/01 00:55:15;;;;;;;0.80;0.45;;;;;;;13.60;100.00;98814.63;4998006;28;20085;-62
2022/07/01 00:57:42;;;;;;;5.75;0.75;;;;;;;13.45;100.00;98806.78;5012656;28;20393;-62
2022/07/01 01:00:11;;;;;;;2.88;0.52;;;;;;;13.45;100.00;98793.22;5005342;28;20088;-61
2022/07/01 01:02:37;;;;;;;1.30;0.50;;;;;;;13.44;100.00;98801.56;5000673;28;20113;-62
2022/07/01 01:05:04;;;;;;;5.28;0.70;;;;;;;13.41;100.00;98788.44;4998519;28;20200;-61
2022/07/01 01:07:31;;;;;;;2.35;0.77;;;;;;;13.49;100.00;98777.28;4999340;28;20121;-61
2022/07/01 01:09:58;;;;;;;1.10;0.50;;;;;;;13.43;100.00;98772.75;5001585;28;20037;-61
2022/07/01 01:12:25;;;;;;;1.35;0.85;;;;;;;13.40;100.00;98767.75;5008312;28;20115;-61
2022/07/01 01:14:51;;;;;;;4.97;0.93;;;;;;;13.36;100.00;98768.19;5012223;28;20091;-61
2022/07/01 01:17:17;;;;;;;1.92;0.50;;;;;;;13.35;100.00;98768.41;5004675;28;20033;-61
2022/07/01 01:19:43;;;;;;;2.50;0.80;;;;;;;13.42;100.00;98761.03;5000253;28;20034;-61
2022/07/01 01:22:10;;;;;;;0.60;0.50;;;;;;;13.43;100.00;98770.03;5005145;28;20084;-62
2022/07/01 01:24:36;;;;;;;1.17;0.57;;;;;;;13.42;100.00;98763.75;5004042;28;20068;-62
2022/07/01 01:27:04;;;;;;;1.88;0.70;;;;;;;13.49;100.00;98759.09;5014865;28;20439;-62
2022/07/01 01:29:29;;;;;;;1.85;0.55;;;;;;;13.44;100.00;98756.22;5002349;28;20034;-61
2022/07/01 01:31:54;;;;;;;4.63;0.70;;;;;;;13.56;100.00;98756.31;5002393;28;20048;-62
2022/07/01 01:34:21;;;;;;;2.28;0.80;;;;;;;13.56;100.00;98757.13;4999185;28;20022;-62
2022/07/01 01:36:46;;;;;;;1.75;0.63;;;;;;;13.52;100.00;98753.22;5002517;28;20576;-62
2022/07/01 01:41:37;;;;;;;1.67;0.57;;;;;;;13.43;100.00;98751.81;4999390;28;20025;-61
2022/07/01 01:44:02;;;;;;;0.57;0.40;;;;;;;13.43;100.00;98753.72;4996593;28;20018;-61
2022/07/01 01:46:29;;;;;;;1.85;0.60;;;;;;;13.49;100.00;98742.78;5001563;28;20359;-61
2022/07/01 01:48:55;;;;;;;1.65;0.50;;;;;;;13.40;100.00;98741.41;4994780;28;20037;-61
2022/07/01 01:51:21;;;;;;;1.80;0.73;;;;;;;13.46;100.00;98734.25;4999469;28;20394;-61
2022/07/01 01:53:47;;;;;;;1.10;0.63;;;;;;;13.52;100.00;98727.94;4997417;28;20482;-64
2022/07/01 01:56:12;;;;;;;1.80;0.60;;;;;;;13.48;100.00;98708.50;5003368;28;20036;-61
2022/07/01 01:58:42;;;;;;;0.93;0.70;;;;;;;13.54;100.00;98709.47;4999015;28;20056;-61
2022/07/01 02:01:08;;;;;;;1.85;0.82;;;;;;;13.63;100.00;98707.31;5015558;28;20028;-61
2022/07/01 02:03:34;;;;;;;1.27;0.57;;;;;;;13.44;100.00;98722.75;5000280;28;20033;-61
2022/07/01 02:05:59;;;;;;;4.88;0.70;;;;;;;13.52;100.00;98711.63;5003164;28;20046;-61
2022/07/01 02:08:25;;;;;;;0.73;0.68;;;;;;;13.46;100.00;98702.44;5004357;28;20069;-61
2022/07/01 02:10:50;;;;;;;1.58;0.70;;;;;;;13.48;100.00;98700.34;5002015;28;20134;-61
2022/07/01 02:13:16;;;;;;;1.08;0.47;;;;;;;13.45;100.00;98694.53;5000188;28;20026;-61
2022/07/01 02:15:41;;;;;;;0.30;0.30;;;;;;;13.30;100.00;98682.13;5003660;28;20022;-61
2022/07/01 02:18:06;;;;;;;1.95;0.40;;;;;;;13.41;100.00;98691.41;4997252;28;20030;-61
2022/07/01 02:20:32;;;;;;;2.42;0.40;;;;;;;13.32;100.00;98690.06;4994710;28;20027;-61
2022/07/01 02:22:59;;;;;;;1.42;0.80;;;;;;;13.35;100.00;98674.13;4995059;28;20068;-60
2022/07/01 02:25:24;;;;;;;1.00;0.43;;;;;;;13.35;100.00;98668.69;4999464;28;20061;-61
2022/07/01 02:27:50;;;;;;;0.88;0.43;;;;;;;13.42;100.00;98662.38;4995973;28;20058;-60
2022/07/01 02:30:15;;;;;;;0.30;0.30;;;;;;;13.43;100.00;98658.59;5018113;28;20037;-60
2022/07/01 02:32:41;;;;;;;0.98;0.32;;;;;;;13.37;100.00;98660.34;5000641;28;20033;-60
2022/07/01 02:35:07;;;;;;;1.88;0.60;;;;;;;13.35;100.00;98668.69;5000848;28;20034;-60
2022/07/01 02:37:33;;;;;;;2.92;0.45;;;;;;;13.31;100.00;98672.94;5001935;28;20083;-61
2022/07/01 02:39:59;;;;;;;1.95;0.40;;;;;;;13.25;100.00;98670.25;4999115;28;20462;-61
2022/07/01 02:42:27;;;;;;;0.90;0.47;;;;;;;13.25;100.00;98683.81;4998056;28;20034;-61
2022/07/01 02:44:55;;;;;;;3.22;0.30;;;;;;;13.12;100.00;98687.50;4997452;28;20034;-62
2022/07/01 02:47:21;;;;;;;0.40;0.30;;;;;;;13.21;100.00;98688.88;5000721;28;20084;-62
2022/07/01 02:49:47;;;;;;;2.55;0.40;;;;;;;13.25;100.00;98698.22;5004869;28;20026;-61
2022/07/01 02:52:13;;;;;;;1.08;0.40;;;;;;;13.17;100.00;98698.53;4996244;28;20025;-60
2022/07/01 02:54:38;;;;;;;1.65;0.60;;;;;;;13.20;100.00;98710.81;5005256;28;20033;-60
2022/07/01 02:57:04;;;;;;;1.98;0.40;;;;;;;13.09;100.00;98713.22;5002372;28;20786;-60
2022/07/01 02:59:29;;;;;;;1.92;0.30;;;;;;;13.17;100.00;98712.09;5005461;28;20032;-64
2022/07/01 03:01:55;;;;;;;2.30;0.88;;;;;;;13.21;100.00;98705.19;5002011;28;20076;-60
2022/07/01 03:04:20;;;;;;;2.33;0.50;;;;;;;13.17;100.00;98712.09;5002251;28;20026;-60
2022/07/01 03:06:45;;;;;;;0.50;0.40;;;;;;;13.22;100.00;98720.41;4997866;28;20045;-60
2022/07/01 03:09:11;;;;;;;0.85;0.50;;;;;;;13.24;100.00;98729.19;5005594;28;20100;-60
2022/07/01 03:11:36;;;;;;;0.45;0.30;;;;;;;13.29;100.00;98723.94;5001019;28;20091;-60
2022/07/01 03:14:02;;;;;;;1.95;0.40;;;;;;;13.25;100.00;98722.69;4999770;28;20112;-59
2022/07/01 03:16:27;;;;;;;0.70;0.50;;;;;;;13.31;100.00;98727.28;4998670;28;20021;-60
2022/07/01 03:18:53;;;;;;;1.00;0.52;;;;;;;13.30;100.00;98736.47;5007075;28;20535;-60
2022/07/01 03:21:19;;;;;;;0.80;0.60;;;;;;;13.29;100.00;98740.25;5006620;28;20033;-60
2022/07/01 03:23:44;;;;;;;0.57;0.47;;;;;;;13.27;100.00;98746.97;5000143;28;20065;-59
2022/07/01 03:26:11;;;;;;;1.23;0.50;;;;;;;13.35;100.00;98743.97;4999000;28;20038;-60
2022/07/01 03:28:37;;;;;;;2.97;0.50;;;;;;;13.45;100.00;98733.41;5000830;28;20088;-60
2022/07/01 03:31:02;;;;;;;0.77;0.50;;;;;;;13.47;100.00;98752.22;5001504;28;20482;-59
2022/07/01 03:33:28;;;;;;;0.85;0.43;;;;;;;13.43;100.00;98753.72;5004321;28;20429;-59
2022/07/01 03:35:54;;;;;;;0.98;0.68;;;;;;;13.41;100.00;98747.66;4998079;28;20029;-59
2022/07/01 03:38:19;;;;;;;0.60;0.47;;;;;;;13.42;100.00;98754.78;5004264;28;20029;-59
2022/07/01 03:40:44;;;;;;;0.88;0.60;;;;;;;13.44;100.00;98758.94;4998961;28;20092;-60
2022/07/01 03:43:10;;;;;;;0.60;0.60;;;;;;;13.46;100.00;98767.69;5003751;28;20091;-59
2022/07/01 03:45:35;;;;;;;1.73;0.80;;;;;;;13.44;100.00;98756.22;5003941;28;20362;-59
2022/07/01 03:48:02;;;;;;;0.90;0.80;;;;;;;13.52;100.00;98757.81;5007113;28;20022;-59
2022/07/01 03:50:27;;;;;;;1.20;0.60;;;;;;;13.50;100.00;98782.50;5007289;28;20378;-59
2022/07/01 03:55:38;;;;;;;2.17;0.68;;;;;;;13.55;100.00;98798.16;4999004;28;20496;-59
2022/07/01 03:58:03;;;;;;;1.75;0.82;;;;;;;13.46;100.00;98805.72;4996029;28;20062;-59
2022/07/01 04:00:33;;;;;;;1.08;0.80;;;;;;;13.47;100.00;98817.47;5005356;28;20057;-59
2022/07/01 04:02:59;;;;;;;3.55;0.80;;;;;;;13.49;100.00;98831.63;5000940;28;20421;-59
2022/07/01 04:05:24;;;;;;;1.60;0.73;;;;;;;13.52;100.00;98828.50;5005381;28;20103;-59
2022/07/01 04:07:50;;;;;;;2.28;0.70;;;;;;;13.55;100.00;98826.16;4999004;28;20064;-59
2022/07/01 04:10:15;;;;;;;1.58;0.68;;;;;;;13.56;100.00;98829.69;5008940;28;20073;-59
2022/07/01 04:12:41;;;;;;;2.88;0.98;;;;;;;13.59;100.00;98840.13;4994620;28;20029;-59
2022/07/01 04:15:07;;;;;;;1.65;1.10;;;;;;;13.65;100.00;98847.41;4997655;28;20057;-59
2022/07/01 04:17:32;;;;;;;2.05;1.17;;;;;;;13.63;100.00;98851.41;4997318;28;20469;-59
2022/07/01 04:19:58;;;;;;;1.42;0.70;;;;;;;13.61;100.00;98851.63;5000767;28;20029;-59
2022/07/01 04:22:32;;;;;;;2.33;0.88;;;;;;;13.76;100.00;98867.59;5002136;28;20049;-59
2022/07/01 04:24:58;;;;;;;2.00;0.77;;;;;;;13.82;100.00;98874.88;4999819;28;20036;-59
2022/07/01 04:27:23;;;;;;;1.48;0.90;;;;;;;13.73;100.00;98877.03;4998911;28;20030;-59
2022/07/01 04:29:49;;;;;;;1.38;0.75;;;;;;;13.66;100.00;98878.97;5000263;28;20432;-59
2022/07/01 04:32:14;;;;;;;2.90;1.13;;;;;;;13.71;100.00;98878.31;4993163;28;20041;-59
2022/07/01 04:34:40;;;;;;;1.45;0.73;;;;;;;13.75;100.00;98885.81;5001133;28;20036;-59
2022/07/01 04:37:05;;;;;;;2.08;0.98;;;;;;;13.69;100.00;98892.13;4999483;28;20397;-59
2022/07/01 04:39:31;;;;;;;1.75;1.27;;;;;;;13.71;100.00;98895.44;5001234;28;20022;-59
2022/07/01 04:41:59;;;;;;;1.40;1.00;;;;;;;13.73;100.00;98898.78;5004426;28;20109;-59
2022/07/01 04:44:26;;;;;;;3.00;1.20;;;;;;;13.73;100.00;98906.94;5011132;28;20485;-60
2022/07/01 04:46:51;;;;;;;2.58;1.63;;;;;;;13.55;100.00;98906.88;5000883;28;20125;-59
2022/07/01 04:49:17;;;;;;;3.10;1.15;;;;;;;13.51;100.00;98911.06;4997956;28;20724;-60
2022/07/01 04:51:42;;;;;;;5.43;1.02;;;;;;;13.42;100.00;98912.41;5002963;28;20087;-60
2022/07/01 04:54:08;;;;;;;1.88;1.42;;;;;;;13.48;100.00;98903.38;5004478;28;20096;-59
2022/07/01 04:56:37;;;;;;;3.03;1.50;;;;;;;13.48;100.00;98890.59;5002116;28;20033;-59
2022/07/01 04:59:03;;;;;;;4.70;1.40;;;;;;;13.51;100.00;98903.75;5013438;28;20516;-59
2022/07/01 05:01:28;;;;;;;1.27;1.05;;;;;;;13.48;100.00;98900.66;5018390;28;20108;-59
2022/07/01 05:03:55;;;;;;;5.95;1.65;;;;;;;13.45;100.00;98901.09;5003979;28;20509;-59
2022/07/01 05:06:20;;;;;;;2.38;1.50;;;;;;;13.54;100.00;98905.19;4997086;28;20425;-59
2022/07/01 05:08:46;;;;;;;2.47;1.33;;;;;;;13.59;100.00;98902.66;4999825;28;20030;-59
2022/07/01 05:11:11;;;;;;;3.38;1.27;;;;;;;13.59;100.00;98905.38;5003754;28;20946;-60
2022/07/01 05:13:37;;;;;;;2.00;1.40;;;;;;;13.70;100.00;98906.53;5004062;28;20147;-58
2022/07/01 05:16:03;;;;;;;2.28;1.27;;;;;;;13.65;100.00;98904.50;4999828;28;20052;-57
2022/07/01 05:23:57;;;;;;;3.15;1.58;;;;;;;13.75;100.00;98902.13;4997479;28;20124;-58
2022/07/01 05:26:25;;;;;;;2.20;1.60;;;;;;;13.70;100.00;98915.56;4996357;28;20965;-58
2022/07/01 05:28:52;;;;;;;6.50;1.48;;;;;;;13.70;100.00;98918.28;4995950;28;20093;-58
2022/07/01 05:31:17;;;;;;;2.10;1.70;;;;;;;13.73;100.00;98917.81;4994964;28;20108;-58
2022/07/01 05:33:43;;;;;;;3.67;1.80;;;;;;;13.64;100.00;98926.47;5001775;28;20510;-58
2022/07/01 05:36:09;;;;;;;2.47;1.70;;;;;;;13.72;100.00;98923.47;4999862;28;20026;-64
2022/07/01 05:38:34;;;;;;;3.92;1.77;;;;;;;13.76;100.00;98925.53;4999090;28;20022;-69
2022/07/01 05:41:00;;;;;;;3.03;2.00;;;;;;;13.77;100.00;98921.75;4995183;28;20414;-69
2022/07/01 05:43:25;;;;;;;3.28;1.80;;;;;;;13.69;100.00;98915.75;4999350;28;20034;-67
2022/07/01 05:45:51;;;;;;;3.33;1.80;;;;;;;13.66;100.00;98929.81;4996784;28;20026;-67
2022/07/01 05:48:16;;;;;;;2.47;1.95;;;;;;;13.58;100.00;98917.31;5003909;28;20112;-66
2022/07/01 05:50:43;;;;;;;3.35;2.30;;;;;;;13.63;100.00;98916.66;5000036;28;20168;-64
2022/07/01 05:53:08;;;;;;;4.60;2.17;;;;;;;13.71;100.00;98910.94;4996594;28;20017;-63
2022/07/01 05:55:34;;;;;;;6.88;2.60;;;;;;;13.75;100.00;98910.28;4998855;28;20053;-63
2022/07/01 05:58:01;;;;;;;4.70;2.58;;;;;;;13.84;100.00;98912.72;4997022;28;20460;-62
2022/07/01 06:00:27;;;;;;;7.95;2.40;;;;;;;13.83;100.00;98906.44;5002814;28;20022;-63
2022/07/01 06:02:52;;;;;;;3.63;1.90;;;;;;;13.87;100.00;98915.00;4999062;28;20026;-63
2022/07/01 06:05:18;;;;;;;2.55;2.17;;;;;;;13.88;100.00;98905.78;4999748;28;20041;-65
2022/07/01 06:07:52;;;;;;;2.72;2.00;;;;;;;13.89;100.00;98905.56;4995897;28;20472;-66
2022/07/01 06:10:18;;;;;;;4.85;2.00;;;;;;;13.85;100.00;98900.78;4996448;28;20026;-66
2022/07/01 06:12:44;;;;;;;2.80;1.92;;;;;;;13.82;100.00;98915.66;4999986;28;20018;-65
2022/07/01 06:15:12;;;;;;;4.65;2.05;;;;;;;13.73;100.00;98903.41;5004052;28;20381;-65
2022/07/01 06:17:39;;;;;;;2.85;1.75;;;;;;;13.80;100.00;98917.75;5002544;28;20087;-65
2022/07/01 06:20:06;;;;;;;3.75;2.30;;;;;;;13.85;100.00;98911.66;5010890;28;20061;-67
2022/07/01 06:22:32;;;;;;;2.88;1.90;;;;;;;13.88;100.00;98917.47;5002545;28;20416;-66
2022/07/01 06:24:58;;;;;;;2.53;1.77;;;;;;;13.63;100.00;98922.91;5000129;28;20037;-66
2022/07/01 06:27:24;;;;;;;3.28;2.22;;;;;;;13.70;100.00;98931.88;5001719;28;20370;-64
2022/07/01 06:29:50;;;;;;;2.90;2.20;;;;;;;13.81;100.00;98923.00;4994585;28;20033;-65
2022/07/01 06:32:15;;;;;;;8.45;1.92;;;;;;;14.58;100.00;98922.69;5000170;28;20030;-58
2022/07/01 06:34:41;;;;;;;5.28;1.30;;;;;;;16.05;100.00;98917.97;4999682;28;20539;-58
2022/07/01 06:37:06;;;;;;;1.08;0.80;;;;;;;17.35;100.00;98935.00;5000848;28;20038;-58
2022/07/01 06:39:32;;;;;;;5.22;1.23;;;;;;;18.11;100.00;98933.66;5002379;28;20030;-58
2022/07/01 06:41:57;;;;;;;2.00;1.20;;;;;;;18.66;100.00;98933.91;4997305;28;20022;-57
2022/07/01 06:44:23;;;;;;;3.22;1.33;;;;;;;19.01;100.00;98934.41;5000701;28;20026;-57
2022/07/01 06:46:48;;;;;;;2.72;1.02;;;;;;;18.87;100.00;98940.53;4998855;28;20455;-68
2022/07/01 06:49:14;;;;;;;2.53;1.17;;;;;;;16.59;100.00;98949.53;5008236;28;20478;-56
2022/07/01 06:55:36;;;;;;;3.67;1.50;;;;;;;15.18;100.00;98953.84;4996368;28;20112;-56
2022/07/01 06:58:39;;;;;;;3.40;1.90;;;;;;;14.85;100.00;98957.81;5001413;28;20523;-57
2022/07/01 07:01:04;;;;;;;2.05;1.80;;;;;;;14.70;100.00;98969.09;5018206;28;20536;-56
2022/07/01 07:03:32;;;;;;;3.78;1.88;;;;;;;14.55;100.00;98964.00;5002627;28;20025;-55
2022/07/01 07:06:01;;;;;;;7.38;2.05;;;;;;;14.48;100.00;98963.19;4996742;28;20030;-56
2022/07/01 07:08:31;;;;;;;2.80;1.95;;;;;;;14.39;100.00;98967.28;4998391;28;20037;-56
2022/07/01 07:10:57;;;;;;;5.53;1.95;;;;;;;14.39;100.00;98972.72;5011244;28;20055;-56
2022/07/01 07:13:23;;;;;;;1.67;1.52;;;;;;;14.35;100.00;98976.94;5005368;28;20027;-55
2022/07/01 07:15:48;;;;;;;2.20;1.20;;;;;;;14.33;100.00;98984.47;5004201;28;20026;-55
2022/07/01 07:18:14;;;;;;;1.27;1.17;;;;;;;14.32;100.00;98983.66;5005018;28;20036;-55
2022/07/01 07:20:39;;;;;;;2.42;1.30;;;;;;;14.32;100.00;98989.09;5001545;28;20026;-56
2022/07/01 07:23:05;;;;;;;2.25;1.60;;;;;;;14.44;100.00;99000.09;5001931;28;20034;-55
2022/07/01 07:25:30;;;;;;;2.03;1.45;;;;;;;14.58;100.00;98992.66;4997872;28;20026;-55
2022/07/01 07:27:56;;;;;;;2.65;1.35;;;;;;;14.73;100.00;98995.03;4997064;28;20029;-56
2022/07/01 07:30:21;;;;;;;1.20;1.10;;;;;;;14.84;100.00;98988.84;4993628;28;20117;-57
2022/07/01 07:32:47;;;;;;;3.35;1.40;;;;;;;15.08;100.00;98997.97;5001686;28;20109;-56
2022/07/01 07:35:12;;;;;;;2.67;1.10;;;;;;;15.13;100.00;98998.97;5016395;28;20109;-56
2022/07/01 07:37:39;;;;;;;2.13;1.20;;;;;;;15.20;100.00;98985.28;5003007;28;20462;-57
2022/07/01 07:40:07;;;;;;;3.20;1.40;;;;;;;15.25;100.00;98995.50;5000817;28;20068;-57
2022/07/01 07:42:33;;;;;;;1.80;1.13;;;;;;;15.35;100.00;98995.75;4995013;28;20060;-57
2022/07/01 07:44:59;;;;;;;1.70;1.00;;;;;;;15.29;100.00;99000.22;4993439;28;20049;-58
2022/07/01 07:47:25;;;;;;;2.10;0.77;;;;;;;15.39;100.00;98991.53;5008432;28;20025;-57
2022/07/01 07:49:50;;;;;;;2.03;0.75;;;;;;;15.48;100.00;98995.59;5001438;28;20034;-63
2022/07/01 07:52:16;;;;;;;1.75;0.80;;;;;;;15.63;100.00;98991.63;5001826;28;20026;-63
2022/07/01 07:54:41;;;;;;;1.77;0.52;;;;;;;15.68;100.00;99003.50;5000491;28;20029;-64
2022/07/01 07:57:07;;;;;;;0.52;0.52;;;;;;;15.76;100.00;98999.63;4992784;28;20057;-63
2022/07/01 07:59:33;;;;;;;0.98;0.50;;;;;;;15.77;100.00;99012.19;5002871;28;20469;-63
2022/07/01 08:01:59;;;;;;;0.60;0.50;;;;;;;16.03;100.00;98999.22;5003890;28;20053;-63
2022/07/01 08:04:24;;;;;;;0.55;0.50;;;;;;;16.07;100.00;98987.63;5001313;28;20095;-64
2022/07/01 08:06:49;;;;;;;0.90;0.75;;;;;;;16.15;100.00;98976.34;5000213;28;20058;-64
2022/07/01 08:09:15;;;;;;;0.93;0.88;;;;;;;16.07;100.00;98984.88;4995930;28;20113;-62
2022/07/01 08:11:41;;;;;;;1.58;0.85;;;;;;;15.95;100.00;98998.50;5001917;28;20104;-62
2022/07/01 08:14:07;;;;;;;1.35;0.70;;;;;;;15.84;100.00;99006.66;5004077;28;20113;-62
2022/07/01 08:16:33;;;;;;;1.75;0.85;;;;;;;15.63;100.00;99006.09;5008319;28;20190;-62
2022/07/01 08:18:58;;;;;;;1.17;0.77;;;;;;;15.47;100.00;98993.91;5004945;28;21744;-62
2022/07/01 08:21:23;;;;;;;1.92;0.80;;;;;;;15.43;100.00;98992.72;5010581;28;20032;-62
2022/07/01 08:23:49;;;;;;;0.82;0.80;;;;;;;15.41;100.00;99002.22;5001547;28;20027;-62
2022/07/01 08:29:36;;;;;;;1.23;0.82;;;;;;;15.04;100.00;99030.31;5003564;28;20613;-62
2022/07/01 08:35:23;;;;;;;1.17;0.82;;;;;;;14.77;100.00;99034.38;5004209;28;20060;-61
2022/07/01 08:37:49;;;;;;;1.13;0.75;;;;;;;14.72;100.00;99032.31;4999854;28;20026;-62
2022/07/01 08:40:14;;;;;;;1.40;0.77;;;;;;;14.68;100.00;99042.00;5000624;28;20025;-63
2022/07/01 08:42:40;;;;;;;2.25;0.80;;;;;;;14.50;100.00;99045.47;4998718;28;20573;-63
2022/07/01 08:45:06;;;;;;;1.05;0.90;;;;;;;14.50;100.00;99048.22;5002015;28;20034;-62
2022/07/01 08:47:32;;;;;;;3.20;0.80;;;;;;;14.56;100.00;99051.94;5004193;28;20034;-61
2022/07/01 08:50:01;;;;;;;1.25;1.15;;;;;;;14.29;100.00;99054.88;5005478;28;20041;-62
2022/07/01 08:52:28;;;;;;;0.90;0.80;;;;;;;14.29;100.00;99067.66;5002310;28;20033;-62
2022/07/01 08:54:54;;;;;;;0.88;0.73;;;;;;;14.36;100.00;99060.28;5003720;28;20064;-61
2022/07/01 08:57:22;;;;;;;0.80;0.80;;;;;;;14.66;100.00;99057.72;5006556;28;20029;-62
2022/07/01 09:00:08;;;;;;;1.10;0.95;;;;;;;14.91;100.00;99074.06;5006905;28;20036;-62
2022/07/01 09:02:54;;;;;;;1.88;1.00;;;;;;;15.07;100.00;99072.63;5006498;28;20382;-62
2022/07/01 09:05:22;;;;;;;1.27;1.08;;;;;;;15.11;100.00;99076.56;5017240;28;20030;-62
2022/07/01 09:07:56;;;;;;;2.72;1.10;;;;;;;15.28;100.00;99079.53;5015718;28;20029;-62
2022/07/01 09:10:22;;;;;;;1.70;1.17;;;;;;;15.26;100.00;99076.19;5017404;28;20027;-62
2022/07/01 09:12:48;;;;;;;2.33;1.30;;;;;;;15.34;100.00;99062.25;5012240;28;20022;-62
2022/07/01 09:15:20;;;;;;;4.07;1.20;;;;;;;15.17;100.00;99072.94;4997853;28;20026;-62
2022/07/01 09:17:46;;;;;;;1.35;1.15;;;;;;;15.10;100.00;99078.44;5006843;28;20033;-62
2022/07/01 09:20:29;;;;;;;2.08;1.20;;;;;;;15.02;100.00;99075.19;4999372;28;20030;-62
2022/07/01 09:23:03;;;;;;;1.95;1.30;;;;;;;14.98;100.00;99085.69;5006222;28;20034;-62
2022/07/01 09:25:32;;;;;;;3.35;1.27;;;;;;;14.90;100.00;99083.25;5001295;28;20108;-62
2022/07/01 09:28:13;;;;;;;3.13;1.10;;;;;;;14.71;100.00;99084.31;5007382;28;20030;-57
2022/07/01 09:30:43;;;;;;;3.38;1.33;;;;;;;14.88;100.00;99088.09;4999277;28;20537;-58
2022/07/01 09:33:08;;;;;;;1.83;1.00;;;;;;;14.87;100.00;99076.38;5014029;28;20593;-57
2022/07/01 09:35:35;;;;;;;1.85;1.10;;;;;;;14.89;100.00;99085.16;5001380;28;20124;-58
2022/07/01 09:38:00;;;;;;;1.75;1.27;;;;;;;14.91;100.00;99063.16;4996572;28;20076;-57
2022/07/01 09:40:45;;;;;;;5.10;1.70;;;;;;;15.12;100.00;99038.19;5007213;28;20025;-57
2022/07/01 09:43:19;;;;;;;2.13;1.25;;;;;;;15.30;100.00;99041.94;5005057;28;20034;-57
2022/07/01 09:46:02;;;;;;;1.75;1.25;;;;;;;15.38;100.00;99066.19;5004315;28;20026;-57
2022/07/01 09:48:48;;;;;;;4.03;1.40;;;;;;;15.18;100.00;99074.59;5004655;28;20068;-56
2022/07/01 09:54:36;;;;;;;1.50;1.40;;;;;;;15.25;100.00;99074.53;4995935;28;20671;-56
2022/07/01 09:57:02;;;;;;;1.33;1.20;;;;;;;15.43;100.00;99077.25;5014713;28;20147;-56
2022/07/01 09:59:28;;;;;;;1.95;1.00;;;;;;;15.19;100.00;99081.72;5000609;28;20052;-56
2022/07/01 10:01:53;;;;;;;1.95;1.30;;;;;;;15.24;100.00;99075.59;5001723;28;21255;-56
2022/07/01 10:04:19;;;;;;;3.92;1.33;;;;;;;15.02;100.00;99070.56;5001292;28;20022;-56
2022/07/01 10:06:58;;;;;;;2.35;1.55;;;;;;;15.07;100.00;99078.91;5001172;28;20107;-56
2022/07/01 10:09:36;;;;;;;1.98;1.38;;;;;;;15.21;100.00;99073.31;4996688;28;20033;-56
2022/07/01 10:12:31;;;;;;;3.40;1.63;;;;;;;15.38;100.00;99079.84;5001523;28;20057;-56
2022/07/01 10:14:59;;;;;;;3.05;1.73;;;;;;;15.20;100.00;99082.56;5014560;28;20950;-56
2022/07/01 10:17:35;;;;;;;3.05;1.60;;;;;;;15.03;100.00;99079.59;4998365;28;20030;-56
2022/07/01 10:20:11;;;;;;;2.10;1.58;;;;;;;15.52;100.00;99086.78;5009030;28;20038;-56
2022/07/01 10:22:38;;;;;;;3.08;1.75;;;;;;;15.91;100.00;99092.81;5010966;28;20033;-56
2022/07/01 10:28:29;;;;;;;4.10;1.45;;;;;;;16.86;100.00;99096.63;4995501;28;20033;-56
2022/07/01 10:31:05;;;;;;;2.25;1.10;;;;;;;17.19;100.00;99111.59;4993342;28;20029;-56
2022/07/01 10:33:42;;;;;;;2.75;0.90;;;;;;;17.99;100.00;99112.75;5002390;28;20018;-62
2022/07/01 10:36:11;;;;;;;1.25;0.90;;;;;;;17.73;100.00;99113.03;5008487;28;20036;-63
2022/07/01 10:39:09;;;;;;;2.00;1.10;;;;;;;17.47;100.00;99113.56;5010116;28;20026;-63
2022/07/01 10:41:41;;;;;;;1.20;0.75;;;;;;;17.80;100.00;99114.84;4994216;28;20038;-63
2022/07/01 10:44:09;;;;;;;0.90;0.70;;;;;;;18.56;100.00;99108.03;4995906;28;20029;-62
2022/07/01 10:46:56;;;;;;;1.50;0.60;;;;;;;18.95;98.46;99105.41;5010301;28;20032;-63
2022/07/01 10:49:45;;;;;;;1.23;0.50;;;;;;;20.17;80.84;99118.28;4998926;28;20029;-62
2022/07/01 10:52:16;;;;;;;1.42;0.50;;;;;;;21.22;71.63;99119.50;4964981;28;20041;-62
2022/07/01 10:54:45;;;;;;;1.52;0.60;;;;;;;20.87;71.15;99111.81;4993964;28;20856;-63
2022/07/01 10:57:18;;;;;;;3.30;0.80;;;;;;;21.12;69.27;99116.69;4997897;28;20778;-64
2022/07/01 10:59:49;;;;;;;2.42;0.60;;;;;;;21.09;70.01;99128.22;4997240;28;20896;-63
2022/07/01 11:02:25;;;;;;;0.85;0.40;;;;;;;20.27;76.29;99135.69;5004325;28;20615;-63
2022/07/01 11:04:54;;;;;;;3.30;0.70;;;;;;;20.49;71.84;99138.41;4995519;28;20041;-63
2022/07/01 11:07:20;;;;;;;2.45;0.68;;;;;;;20.86;76.37;99136.84;4992563;28;20080;-62
2022/07/01 11:09:45;;;;;;;0.95;0.50;;;;;;;21.27;66.59;99145.38;4994611;28;20360;-63
2022/07/01 11:12:14;;;;;;;1.10;0.55;;;;;;;23.22;62.02;99128.34;4996290;28;20108;-63
2022/07/01 11:14:40;;;;;;;1.67;0.50;;;;;;;24.03;59.35;99137.50;4993486;28;20121;-63
2022/07/01 11:17:07;;;;;;;2.05;0.70;;;;;;;22.64;60.74;99130.53;4999145;28;20049;-63
2022/07/01 11:19:33;;;;;;;0.90;0.60;;;;;;;22.51;60.85;99132.72;4992973;28;20157;-63
2022/07/01 11:21:59;;;;;;;1.35;0.88;;;;;;;22.01;61.31;99128.72;4989761;28;20030;-63
2022/07/01 11:24:25;;;;;;;1.48;0.70;;;;;;;21.75;66.62;99129.72;4993033;28;20045;-63
2022/07/01 11:26:59;;;;;;;1.15;0.50;;;;;;;21.92;66.30;99133.09;5006769;28;20060;-64
2022/07/01 11:29:26;;;;;;;0.70;0.60;;;;;;;21.57;71.71;99131.00;4992360;28;20030;-63
2022/07/01 11:31:51;;;;;;;2.30;0.52;;;;;;;21.55;73.09;99125.75;4993907;28;20021;-63
2022/07/01 11:34:18;;;;;;;3.47;0.90;;;;;;;21.36;74.83;99127.28;4993640;28;20025;-64
2022/07/01 11:39:33;;;;;;;1.40;0.65;;;;;;;20.74;76.35;99124.06;4993925;28;20080;-63
2022/07/01 11:42:06;;;;;;;2.95;0.80;;;;;;;20.36;68.81;99119.59;5002071;28;20049;-64
2022/07/01 11:44:33;;;;;;;2.53;0.70;;;;;;;20.82;75.21;99122.78;4998414;28;20046;-63
2022/07/01 11:47:00;;;;;;;3.08;0.85;;;;;;;21.61;63.65;99129.38;4990677;28;20054;-62
2022/07/01 11:49:26;;;;;;;1.63;0.82;;;;;;;21.48;64.94;99119.66;4991392;28;20572;-63
2022/07/01 11:51:58;;;;;;;1.08;0.70;;;;;;;21.82;63.36;99122.03;5000413;28;20025;-64
2022/07/01 11:54:24;;;;;;;4.32;1.00;;;;;;;21.62;63.42;99123.59;4992142;28;20026;-63
2022/07/01 11:56:50;;;;;;;1.58;0.98;;;;;;;21.21;65.67;99128.84;4991241;28;20484;-63
2022/07/01 11:59:16;;;;;;;2.47;1.00;;;;;;;20.53;66.97;99122.22;5002998;28;20042;-63